sensor_id;sensor_type;location;lat;lon;timestamp;temperature;humidity
57857;DHT22;43683;48.650;9.290;2022-12-24T00:01:07;8.30;96.60
57857;DHT22;43683;48.650;9.290;2022-12-24T00:03:33;8.30;96.60
57857;DHT22;43683;48.650;9.290;2022-12-24T00:06:06;8.40;96.70
57857;DHT22;43683;48.650;9.290;2022-12-24T00:08:32;8.40;96.60
57857;DHT22;43683;48.650;9.290;2022-12-24T00:10:58;8.40;96.60
57857;DHT22;43683;48.650;9.290;2022-12-24T00:13:24;8.40;96.60
57857;DHT22;43683;48.650;9.290;2022-12-24T00:15:49;8.40;96.50
57857;DHT22;43683;48.650;9.290;2022-12-24T00:18:15;8.30;96.40
57857;DHT22;43683;48.650;9.290;2022-12-24T00:20:41;8.20;96.50
57857;DHT22;43683;48.650;9.290;2022-12-24T00:23:09;8.20;96.50
57857;DHT22;43683;48.650;9.290;2022-12-24T00:25:35;8.20;96.50
57857;DHT22;43683;48.650;9.290;2022-12-24T00:28:00;8.10;96.40
57857;DHT22;43683;48.650;9.290;2022-12-24T00:30:26;8.10;96.40
57857;DHT22;43683;48.650;9.290;2022-12-24T00:32:51;8.20;96.40
57857;DHT22;43683;48.650;9.290;2022-12-24T00:35:17;8.10;96.40
57857;DHT22;43683;48.650;9.290;2022-12-24T00:37:42;8.10;96.40
57857;DHT22;43683;48.650;9.290;2022-12-24T00:40:11;8.00;96.40
57857;DHT22;43683;48.650;9.290;2022-12-24T00:42:36;8.10;96.40
57857;DHT22;43683;48.650;9.290;2022-12-24T00:45:02;8.00;96.40
57857;DHT22;43683;48.650;9.290;2022-12-24T00:47:27;7.90;96.40
57857;DHT22;43683;48.650;9.290;2022-12-24T00:49:53;8.10;96.50
57857;DHT22;43683;48.650;9.290;2022-12-24T00:52:18;8.20;96.30
57857;DHT22;43683;48.650;9.290;2022-12-24T00:54:44;8.20;96.10
57857;DHT22;43683;48.650;9.290;2022-12-24T00:57:09;8.10;96.00
57857;DHT22;43683;48.650;9.290;2022-12-24T00:59:35;8.00;96.10
57857;DHT22;43683;48.650;9.290;2022-12-24T01:02:00;7.80;96.30
57857;DHT22;43683;48.650;9.290;2022-12-24T01:04:26;7.70;96.50
57857;DHT22;43683;48.650;9.290;2022-12-24T01:07:13;7.70;96.60
57857;DHT22;43683;48.650;9.290;2022-12-24T01:09:38;7.70;96.70
57857;DHT22;43683;48.650;9.290;2022-12-24T01:12:04;7.70;96.70
57857;DHT22;43683;48.650;9.290;2022-12-24T01:14:29;7.80;96.70
57857;DHT22;43683;48.650;9.290;2022-12-24T01:16:55;7.90;96.60
57857;DHT22;43683;48.650;9.290;2022-12-24T01:19:20;8.00;96.40
57857;DHT22;43683;48.650;9.290;2022-12-24T01:21:46;8.20;96.10
57857;DHT22;43683;48.650;9.290;2022-12-24T01:24:15;8.30;96.00
57857;DHT22;43683;48.650;9.290;2022-12-24T01:26:42;8.30;95.80
57857;DHT22;43683;48.650;9.290;2022-12-24T01:29:07;8.30;95.80
57857;DHT22;43683;48.650;9.290;2022-12-24T01:31:33;8.30;95.70
57857;DHT22;43683;48.650;9.290;2022-12-24T01:33:59;8.20;95.80
57857;DHT22;43683;48.650;9.290;2022-12-24T01:36:24;8.30;95.90
57857;DHT22;43683;48.650;9.290;2022-12-24T01:38:50;8.30;95.80
57857;DHT22;43683;48.650;9.290;2022-12-24T01:41:17;8.40;95.60
57857;DHT22;43683;48.650;9.290;2022-12-24T01:44:28;8.50;95.60
57857;DHT22;43683;48.650;9.290;2022-12-24T01:47:04;8.40;95.50
57857;DHT22;43683;48.650;9.290;2022-12-24T01:49:30;8.40;95.60
57857;DHT22;43683;48.650;9.290;2022-12-24T01:52:07;8.40;95.60
57857;DHT22;43683;48.650;9.290;2022-12-24T01:54:43;8.50;95.60
57857;DHT22;43683;48.650;9.290;2022-12-24T01:57:15;8.50;95.60
57857;DHT22;43683;48.650;9.290;2022-12-24T01:59:46;8.70;95.50
57857;DHT22;43683;48.650;9.290;2022-12-24T02:02:14;8.80;95.30
57857;DHT22;43683;48.650;9.290;2022-12-24T02:05:05;8.80;95.10
57857;DHT22;43683;48.650;9.290;2022-12-24T02:07:31;8.80;95.00
57857;DHT22;43683;48.650;9.290;2022-12-24T02:09:59;8.70;95.00
57857;DHT22;43683;48.650;9.290;2022-12-24T02:12:27;8.50;95.20
57857;DHT22;43683;48.650;9.290;2022-12-24T02:14:54;8.40;95.50
57857;DHT22;43683;48.650;9.290;2022-12-24T02:17:41;8.40;95.60
57857;DHT22;43683;48.650;9.290;2022-12-24T02:31:23;8.40;95.30
57857;DHT22;43683;48.650;9.290;2022-12-24T02:36:42;8.40;95.40
57857;DHT22;43683;48.650;9.290;2022-12-24T02:39:12;8.40;95.40
57857;DHT22;43683;48.650;9.290;2022-12-24T02:41:44;8.40;95.30
57857;DHT22;43683;48.650;9.290;2022-12-24T02:44:48;8.60;95.20
57857;DHT22;43683;48.650;9.290;2022-12-24T02:47:17;8.80;95.30
57857;DHT22;43683;48.650;9.290;2022-12-24T02:49:45;8.90;94.80
57857;DHT22;43683;48.650;9.290;2022-12-24T02:52:35;9.00;94.70
57857;DHT22;43683;48.650;9.290;2022-12-24T02:55:05;9.00;94.70
57857;DHT22;43683;48.650;9.290;2022-12-24T02:57:41;9.00;94.70
57857;DHT22;43683;48.650;9.290;2022-12-24T03:00:10;9.00;94.70
57857;DHT22;43683;48.650;9.290;2022-12-24T03:10:49;9.10;94.60
57857;DHT22;43683;48.650;9.290;2022-12-24T03:13:17;9.10;94.70
57857;DHT22;43683;48.650;9.290;2022-12-24T03:15:44;8.90;94.80
57857;DHT22;43683;48.650;9.290;2022-12-24T03:18:13;8.90;95.10
57857;DHT22;43683;48.650;9.290;2022-12-24T03:20:43;8.80;95.20
57857;DHT22;43683;48.650;9.290;2022-12-24T03:23:09;8.70;95.30
57857;DHT22;43683;48.650;9.290;2022-12-24T03:25:38;8.60;95.50
57857;DHT22;43683;48.650;9.290;2022-12-24T03:28:05;8.50;95.60
57857;DHT22;43683;48.650;9.290;2022-12-24T03:30:32;8.40;96.10
57857;DHT22;43683;48.650;9.290;2022-12-24T03:32:58;8.30;95.90
57857;DHT22;43683;48.650;9.290;2022-12-24T03:35:23;8.30;95.90
57857;DHT22;43683;48.650;9.290;2022-12-24T03:37:50;8.40;95.90
57857;DHT22;43683;48.650;9.290;2022-12-24T03:40:15;8.40;95.90
57857;DHT22;43683;48.650;9.290;2022-12-24T03:42:41;8.50;95.80
57857;DHT22;43683;48.650;9.290;2022-12-24T03:45:07;8.50;95.70
57857;DHT22;43683;48.650;9.290;2022-12-24T03:47:32;8.40;95.70
57857;DHT22;43683;48.650;9.290;2022-12-24T03:49:58;8.40;95.70
57857;DHT22;43683;48.650;9.290;2022-12-24T03:52:23;8.30;95.80
57857;DHT22;43683;48.650;9.290;2022-12-24T03:54:49;8.40;95.80
57857;DHT22;43683;48.650;9.290;2022-12-24T03:57:14;8.40;95.70
57857;DHT22;43683;48.650;9.290;2022-12-24T03:59:40;8.40;95.70
57857;DHT22;43683;48.650;9.290;2022-12-24T04:02:06;8.40;95.60
57857;DHT22;43683;48.650;9.290;2022-12-24T04:04:31;8.30;95.60
57857;DHT22;43683;48.650;9.290;2022-12-24T04:06:58;8.30;95.60
57857;DHT22;43683;48.650;9.290;2022-12-24T04:09:24;8.30;95.60
57857;DHT22;43683;48.650;9.290;2022-12-24T04:11:49;8.30;95.60
57857;DHT22;43683;48.650;9.290;2022-12-24T04:14:15;8.30;95.50
57857;DHT22;43683;48.650;9.290;2022-12-24T04:16:40;8.40;95.50
57857;DHT22;43683;48.650;9.290;2022-12-24T04:19:06;8.40;95.40
57857;DHT22;43683;48.650;9.290;2022-12-24T04:21:31;8.50;95.40
57857;DHT22;43683;48.650;9.290;2022-12-24T04:23:57;8.50;95.30
57857;DHT22;43683;48.650;9.290;2022-12-24T04:26:22;8.50;95.30
57857;DHT22;43683;48.650;9.290;2022-12-24T04:28:48;8.50;95.20
57857;DHT22;43683;48.650;9.290;2022-12-24T04:31:15;8.50;95.20
57857;DHT22;43683;48.650;9.290;2022-12-24T04:33:41;8.50;95.20
57857;DHT22;43683;48.650;9.290;2022-12-24T04:36:07;8.40;95.30
57857;DHT22;43683;48.650;9.290;2022-12-24T04:38:34;8.30;95.30
57857;DHT22;43683;48.650;9.290;2022-12-24T04:41:05;8.20;95.40
57857;DHT22;43683;48.650;9.290;2022-12-24T04:43:31;8.10;95.50
57857;DHT22;43683;48.650;9.290;2022-12-24T04:46:11;8.10;95.60
57857;DHT22;43683;48.650;9.290;2022-12-24T04:48:39;8.10;95.70
57857;DHT22;43683;48.650;9.290;2022-12-24T04:51:06;8.10;95.70
57857;DHT22;43683;48.650;9.290;2022-12-24T04:53:33;8.00;95.70
57857;DHT22;43683;48.650;9.290;2022-12-24T04:55:58;7.90;95.80
57857;DHT22;43683;48.650;9.290;2022-12-24T04:58:24;8.00;95.90
57857;DHT22;43683;48.650;9.290;2022-12-24T05:00:50;8.00;95.80
57857;DHT22;43683;48.650;9.290;2022-12-24T05:03:15;8.00;95.70
57857;DHT22;43683;48.650;9.290;2022-12-24T05:05:41;8.10;95.60
57857;DHT22;43683;48.650;9.290;2022-12-24T05:08:06;8.20;95.50
57857;DHT22;43683;48.650;9.290;2022-12-24T05:10:32;8.20;95.50
57857;DHT22;43683;48.650;9.290;2022-12-24T05:12:58;8.10;95.50
57857;DHT22;43683;48.650;9.290;2022-12-24T05:15:23;8.10;95.50
57857;DHT22;43683;48.650;9.290;2022-12-24T05:17:49;8.10;95.50
57857;DHT22;43683;48.650;9.290;2022-12-24T05:20:14;8.10;95.60
57857;DHT22;43683;48.650;9.290;2022-12-24T05:22:40;8.10;95.60
57857;DHT22;43683;48.650;9.290;2022-12-24T05:25:26;8.10;95.60
57857;DHT22;43683;48.650;9.290;2022-12-24T05:28:12;8.10;95.50
57857;DHT22;43683;48.650;9.290;2022-12-24T05:30:37;8.20;95.40
57857;DHT22;43683;48.650;9.290;2022-12-24T05:33:03;8.20;95.30
57857;DHT22;43683;48.650;9.290;2022-12-24T05:35:28;8.20;95.20
57857;DHT22;43683;48.650;9.290;2022-12-24T05:37:57;8.20;95.20
57857;DHT22;43683;48.650;9.290;2022-12-24T05:40:22;8.20;95.30
57857;DHT22;43683;48.650;9.290;2022-12-24T05:42:49;8.20;95.30
57857;DHT22;43683;48.650;9.290;2022-12-24T05:45:14;8.10;95.40
57857;DHT22;43683;48.650;9.290;2022-12-24T05:47:40;8.00;95.40
57857;DHT22;43683;48.650;9.290;2022-12-24T05:50:06;8.00;95.50
57857;DHT22;43683;48.650;9.290;2022-12-24T05:52:32;7.90;95.50
57857;DHT22;43683;48.650;9.290;2022-12-24T05:54:57;7.90;95.60
57857;DHT22;43683;48.650;9.290;2022-12-24T05:57:23;7.90;95.60
57857;DHT22;43683;48.650;9.290;2022-12-24T05:59:48;7.80;95.70
57857;DHT22;43683;48.650;9.290;2022-12-24T06:02:14;7.80;95.70
57857;DHT22;43683;48.650;9.290;2022-12-24T06:04:39;7.70;95.80
57857;DHT22;43683;48.650;9.290;2022-12-24T06:07:05;7.70;95.80
57857;DHT22;43683;48.650;9.290;2022-12-24T06:09:30;7.70;95.70
57857;DHT22;43683;48.650;9.290;2022-12-24T06:11:56;7.70;95.70
57857;DHT22;43683;48.650;9.290;2022-12-24T06:14:21;7.70;95.60
57857;DHT22;43683;48.650;9.290;2022-12-24T06:16:47;7.70;95.60
57857;DHT22;43683;48.650;9.290;2022-12-24T06:19:12;7.70;95.60
57857;DHT22;43683;48.650;9.290;2022-12-24T06:21:38;7.50;95.60
57857;DHT22;43683;48.650;9.290;2022-12-24T06:24:04;7.40;95.70
57857;DHT22;43683;48.650;9.290;2022-12-24T06:26:29;7.40;95.80
57857;DHT22;43683;48.650;9.290;2022-12-24T06:28:55;7.40;95.90
57857;DHT22;43683;48.650;9.290;2022-12-24T06:31:22;7.40;95.90
57857;DHT22;43683;48.650;9.290;2022-12-24T06:33:48;7.40;95.80
57857;DHT22;43683;48.650;9.290;2022-12-24T06:36:20;7.40;95.80
57857;DHT22;43683;48.650;9.290;2022-12-24T06:38:46;7.40;95.80
57857;DHT22;43683;48.650;9.290;2022-12-24T06:41:13;7.30;95.80
57857;DHT22;43683;48.650;9.290;2022-12-24T06:43:40;7.30;95.90
57857;DHT22;43683;48.650;9.290;2022-12-24T06:46:07;7.30;95.90
57857;DHT22;43683;48.650;9.290;2022-12-24T06:48:32;7.30;95.90
57857;DHT22;43683;48.650;9.290;2022-12-24T06:51:01;7.30;95.80
57857;DHT22;43683;48.650;9.290;2022-12-24T06:53:26;7.40;95.80
57857;DHT22;43683;48.650;9.290;2022-12-24T06:55:52;7.30;95.80
57857;DHT22;43683;48.650;9.290;2022-12-24T06:58:17;7.30;95.80
57857;DHT22;43683;48.650;9.290;2022-12-24T07:00:43;7.30;95.80
57857;DHT22;43683;48.650;9.290;2022-12-24T07:03:08;7.40;95.80
57857;DHT22;43683;48.650;9.290;2022-12-24T07:05:34;7.60;95.70
57857;DHT22;43683;48.650;9.290;2022-12-24T07:08:00;7.70;95.50
57857;DHT22;43683;48.650;9.290;2022-12-24T07:10:25;7.80;95.30
57857;DHT22;43683;48.650;9.290;2022-12-24T07:12:51;7.90;95.10
57857;DHT22;43683;48.650;9.290;2022-12-24T07:15:17;7.90;95.00
57857;DHT22;43683;48.650;9.290;2022-12-24T07:17:42;7.90;95.00
57857;DHT22;43683;48.650;9.290;2022-12-24T07:20:11;7.90;95.00
57857;DHT22;43683;48.650;9.290;2022-12-24T07:22:37;8.00;95.30
57857;DHT22;43683;48.650;9.290;2022-12-24T07:25:03;8.00;94.90
57857;DHT22;43683;48.650;9.290;2022-12-24T07:27:29;8.10;94.90
57857;DHT22;43683;48.650;9.290;2022-12-24T07:29:55;8.20;94.80
57857;DHT22;43683;48.650;9.290;2022-12-24T07:32:20;8.20;94.70
57857;DHT22;43683;48.650;9.290;2022-12-24T07:34:46;8.20;94.70
57857;DHT22;43683;48.650;9.290;2022-12-24T07:37:12;8.20;94.70
57857;DHT22;43683;48.650;9.290;2022-12-24T07:39:37;8.10;94.80
57857;DHT22;43683;48.650;9.290;2022-12-24T07:42:03;8.00;94.90
57857;DHT22;43683;48.650;9.290;2022-12-24T07:44:32;7.90;95.10
57857;DHT22;43683;48.650;9.290;2022-12-24T07:46:57;7.80;95.10
57857;DHT22;43683;48.650;9.290;2022-12-24T07:49:23;7.80;95.10
57857;DHT22;43683;48.650;9.290;2022-12-24T07:51:49;7.80;95.20
57857;DHT22;43683;48.650;9.290;2022-12-24T07:54:14;7.60;95.30
57857;DHT22;43683;48.650;9.290;2022-12-24T07:56:40;7.50;95.40
57857;DHT22;43683;48.650;9.290;2022-12-24T07:59:06;7.40;95.50
57857;DHT22;43683;48.650;9.290;2022-12-24T08:01:31;7.30;95.70
57857;DHT22;43683;48.650;9.290;2022-12-24T08:03:57;7.40;95.80
57857;DHT22;43683;48.650;9.290;2022-12-24T08:06:22;7.50;95.70
57857;DHT22;43683;48.650;9.290;2022-12-24T08:08:48;7.60;95.50
57857;DHT22;43683;48.650;9.290;2022-12-24T08:11:14;7.60;95.30
57857;DHT22;43683;48.650;9.290;2022-12-24T08:13:40;7.70;95.30
57857;DHT22;43683;48.650;9.290;2022-12-24T08:16:06;7.80;95.30
57857;DHT22;43683;48.650;9.290;2022-12-24T08:18:31;7.80;95.10
57857;DHT22;43683;48.650;9.290;2022-12-24T08:20:57;7.90;95.00
57857;DHT22;43683;48.650;9.290;2022-12-24T08:23:23;8.00;95.00
57857;DHT22;43683;48.650;9.290;2022-12-24T08:25:48;8.10;94.90
57857;DHT22;43683;48.650;9.290;2022-12-24T08:28:16;8.10;94.90
57857;DHT22;43683;48.650;9.290;2022-12-24T08:30:42;8.10;95.00
57857;DHT22;43683;48.650;9.290;2022-12-24T08:33:08;8.20;95.00
57857;DHT22;43683;48.650;9.290;2022-12-24T08:35:34;8.30;94.90
57857;DHT22;43683;48.650;9.290;2022-12-24T08:38:00;8.40;94.80
57857;DHT22;43683;48.650;9.290;2022-12-24T08:40:25;8.40;94.70
57857;DHT22;43683;48.650;9.290;2022-12-24T08:42:51;8.50;94.70
57857;DHT22;43683;48.650;9.290;2022-12-24T08:45:17;8.60;94.60
57857;DHT22;43683;48.650;9.290;2022-12-24T08:47:42;8.60;94.60
57857;DHT22;43683;48.650;9.290;2022-12-24T08:50:08;8.70;94.50
57857;DHT22;43683;48.650;9.290;2022-12-24T08:52:34;8.70;94.50
57857;DHT22;43683;48.650;9.290;2022-12-24T08:55:00;8.70;94.50
57857;DHT22;43683;48.650;9.290;2022-12-24T08:57:25;8.60;94.60
57857;DHT22;43683;48.650;9.290;2022-12-24T08:59:51;8.60;94.70
57857;DHT22;43683;48.650;9.290;2022-12-24T09:02:17;8.60;94.70
57857;DHT22;43683;48.650;9.290;2022-12-24T09:04:43;8.60;94.70
57857;DHT22;43683;48.650;9.290;2022-12-24T09:07:08;8.70;94.70
57857;DHT22;43683;48.650;9.290;2022-12-24T09:09:34;8.70;94.70
57857;DHT22;43683;48.650;9.290;2022-12-24T09:12:00;8.90;94.50
57857;DHT22;43683;48.650;9.290;2022-12-24T09:14:26;9.00;94.30
57857;DHT22;43683;48.650;9.290;2022-12-24T09:16:51;9.10;94.10
57857;DHT22;43683;48.650;9.290;2022-12-24T09:19:17;9.30;93.90
57857;DHT22;43683;48.650;9.290;2022-12-24T09:21:42;9.50;93.70
57857;DHT22;43683;48.650;9.290;2022-12-24T09:24:08;9.70;93.80
57857;DHT22;43683;48.650;9.290;2022-12-24T09:26:33;9.80;93.30
57857;DHT22;43683;48.650;9.290;2022-12-24T09:29:00;10.00;93.20
57857;DHT22;43683;48.650;9.290;2022-12-24T09:31:26;10.20;93.00
57857;DHT22;43683;48.650;9.290;2022-12-24T09:33:52;10.30;92.90
57857;DHT22;43683;48.650;9.290;2022-12-24T09:36:18;10.40;92.80
57857;DHT22;43683;48.650;9.290;2022-12-24T09:38:44;10.30;92.90
57857;DHT22;43683;48.650;9.290;2022-12-24T09:43:53;10.00;93.20
57857;DHT22;43683;48.650;9.290;2022-12-24T09:46:50;9.80;93.50
57857;DHT22;43683;48.650;9.290;2022-12-24T09:49:18;9.50;93.80
57857;DHT22;43683;48.650;9.290;2022-12-24T09:51:54;9.30;94.10
57857;DHT22;43683;48.650;9.290;2022-12-24T09:54:36;9.20;94.30
57857;DHT22;43683;48.650;9.290;2022-12-24T09:57:14;9.00;94.50
57857;DHT22;43683;48.650;9.290;2022-12-24T09:59:45;8.90;94.60
57857;DHT22;43683;48.650;9.290;2022-12-24T10:02:14;8.80;94.70
57857;DHT22;43683;48.650;9.290;2022-12-24T10:04:41;8.70;94.70
57857;DHT22;43683;48.650;9.290;2022-12-24T10:12:48;9.60;94.80
57857;DHT22;43683;48.650;9.290;2022-12-24T10:15:21;10.10;94.70
57857;DHT22;43683;48.650;9.290;2022-12-24T10:28:54;11.30;94.40
57857;DHT22;43683;48.650;9.290;2022-12-24T10:31:34;11.40;94.10
57857;DHT22;43683;48.650;9.290;2022-12-24T10:34:11;11.50;93.90
57857;DHT22;43683;48.650;9.290;2022-12-24T10:36:38;11.60;93.70
57857;DHT22;43683;48.650;9.290;2022-12-24T10:39:09;11.70;93.60
57857;DHT22;43683;48.650;9.290;2022-12-24T10:41:38;11.70;93.40
57857;DHT22;43683;48.650;9.290;2022-12-24T10:44:03;11.80;93.20
57857;DHT22;43683;48.650;9.290;2022-12-24T10:46:35;11.80;93.00
57857;DHT22;43683;48.650;9.290;2022-12-24T10:49:05;11.80;92.70
57857;DHT22;43683;48.650;9.290;2022-12-24T10:51:41;11.90;92.60
57857;DHT22;43683;48.650;9.290;2022-12-24T10:54:19;12.00;92.20
57857;DHT22;43683;48.650;9.290;2022-12-24T10:56:47;12.20;91.70
57857;DHT22;43683;48.650;9.290;2022-12-24T10:59:25;12.40;91.50
57857;DHT22;43683;48.650;9.290;2022-12-24T11:01:52;12.60;91.00
57857;DHT22;43683;48.650;9.290;2022-12-24T11:04:24;12.60;91.00
57857;DHT22;43683;48.650;9.290;2022-12-24T11:07:04;12.50;90.90
57857;DHT22;43683;48.650;9.290;2022-12-24T11:09:33;12.30;91.00
57857;DHT22;43683;48.650;9.290;2022-12-24T11:12:02;12.10;91.40
57857;DHT22;43683;48.650;9.290;2022-12-24T11:14:34;11.90;91.50
57857;DHT22;43683;48.650;9.290;2022-12-24T11:17:00;11.80;91.40
57857;DHT22;43683;48.650;9.290;2022-12-24T11:22:00;11.80;91.20
57857;DHT22;43683;48.650;9.290;2022-12-24T11:24:29;11.70;91.10
57857;DHT22;43683;48.650;9.290;2022-12-24T11:27:29;11.60;91.20
57857;DHT22;43683;48.650;9.290;2022-12-24T11:30:29;11.60;91.20
57857;DHT22;43683;48.650;9.290;2022-12-24T11:32:50;11.50;91.50
57857;DHT22;43683;48.650;9.290;2022-12-24T11:35:32;11.60;91.70
57857;DHT22;43683;48.650;9.290;2022-12-24T11:43:33;11.60;91.90
57857;DHT22;43683;48.650;9.290;2022-12-24T11:46:12;11.70;91.90
57857;DHT22;43683;48.650;9.290;2022-12-24T11:48:38;11.90;91.70
57857;DHT22;43683;48.650;9.290;2022-12-24T11:51:04;12.10;91.50
57857;DHT22;43683;48.650;9.290;2022-12-24T11:53:33;12.30;91.40
57857;DHT22;43683;48.650;9.290;2022-12-24T11:56:01;12.50;91.30
57857;DHT22;43683;48.650;9.290;2022-12-24T12:01:09;12.90;91.10
57857;DHT22;43683;48.650;9.290;2022-12-24T12:03:41;13.00;91.00
57857;DHT22;43683;48.650;9.290;2022-12-24T12:06:42;13.20;91.00
57857;DHT22;43683;48.650;9.290;2022-12-24T12:09:00;13.40;91.00
57857;DHT22;43683;48.650;9.290;2022-12-24T12:11:26;13.50;90.90
57857;DHT22;43683;48.650;9.290;2022-12-24T12:13:52;13.60;90.90
57857;DHT22;43683;48.650;9.290;2022-12-24T12:16:23;13.60;91.00
57857;DHT22;43683;48.650;9.290;2022-12-24T12:18:58;13.50;91.10
57857;DHT22;43683;48.650;9.290;2022-12-24T12:21:26;13.50;91.00
57857;DHT22;43683;48.650;9.290;2022-12-24T12:23:56;13.50;91.10
57857;DHT22;43683;48.650;9.290;2022-12-24T12:26:24;13.60;91.00
57857;DHT22;43683;48.650;9.290;2022-12-24T12:28:55;13.70;90.90
57857;DHT22;43683;48.650;9.290;2022-12-24T12:31:39;13.80;90.70
57857;DHT22;43683;48.650;9.290;2022-12-24T12:34:12;14.10;90.70
57857;DHT22;43683;48.650;9.290;2022-12-24T12:39:07;14.70;90.70
57857;DHT22;43683;48.650;9.290;2022-12-24T12:41:44;14.90;90.70
57857;DHT22;43683;48.650;9.290;2022-12-24T12:52:01;13.80;91.20
57857;DHT22;43683;48.650;9.290;2022-12-24T12:57:14;13.00;91.90
57857;DHT22;43683;48.650;9.290;2022-12-24T12:59:47;12.70;92.00
57857;DHT22;43683;48.650;9.290;2022-12-24T13:10:36;12.70;91.70
57857;DHT22;43683;48.650;9.290;2022-12-24T13:12:46;12.90;91.50
57857;DHT22;43683;48.650;9.290;2022-12-24T13:18:03;12.90;91.10
57857;DHT22;43683;48.650;9.290;2022-12-24T13:20:32;12.80;91.10
57857;DHT22;43683;48.650;9.290;2022-12-24T13:22:58;12.80;91.20
57857;DHT22;43683;48.650;9.290;2022-12-24T13:25:26;12.70;91.40
57857;DHT22;43683;48.650;9.290;2022-12-24T13:27:53;12.50;91.40
57857;DHT22;43683;48.650;9.290;2022-12-24T13:32:56;12.30;91.70
57857;DHT22;43683;48.650;9.290;2022-12-24T13:37:48;12.40;91.80
57857;DHT22;43683;48.650;9.290;2022-12-24T13:40:31;12.30;91.80
57857;DHT22;43683;48.650;9.290;2022-12-24T13:45:37;12.00;92.10
57857;DHT22;43683;48.650;9.290;2022-12-24T13:50:36;11.70;92.50
57857;DHT22;43683;48.650;9.290;2022-12-24T13:53:03;11.60;92.20
57857;DHT22;43683;48.650;9.290;2022-12-24T13:55:29;11.50;92.10
57857;DHT22;43683;48.650;9.290;2022-12-24T13:57:59;11.40;92.10
57857;DHT22;43683;48.650;9.290;2022-12-24T14:00:27;11.40;92.10
57857;DHT22;43683;48.650;9.290;2022-12-24T14:02:55;11.40;92.10
57857;DHT22;43683;48.650;9.290;2022-12-24T14:05:26;11.40;92.00
57857;DHT22;43683;48.650;9.290;2022-12-24T14:07:53;11.50;91.90
57857;DHT22;43683;48.650;9.290;2022-12-24T14:10:25;11.50;91.80
57857;DHT22;43683;48.650;9.290;2022-12-24T14:12:51;11.70;91.70
57857;DHT22;43683;48.650;9.290;2022-12-24T14:18:01;11.70;91.50
57857;DHT22;43683;48.650;9.290;2022-12-24T14:20:26;11.70;91.70
57857;DHT22;43683;48.650;9.290;2022-12-24T14:22:52;11.50;91.80
57857;DHT22;43683;48.650;9.290;2022-12-24T14:25:18;11.40;91.90
57857;DHT22;43683;48.650;9.290;2022-12-24T14:27:50;11.40;92.00
57857;DHT22;43683;48.650;9.290;2022-12-24T14:30:23;11.30;92.00
57857;DHT22;43683;48.650;9.290;2022-12-24T14:32:49;11.30;92.10
57857;DHT22;43683;48.650;9.290;2022-12-24T14:35:19;11.20;92.20
57857;DHT22;43683;48.650;9.290;2022-12-24T14:37:46;11.10;92.30
57857;DHT22;43683;48.650;9.290;2022-12-24T14:40:16;11.00;92.40
57857;DHT22;43683;48.650;9.290;2022-12-24T14:42:48;10.90;92.40
57857;DHT22;43683;48.650;9.290;2022-12-24T14:50:15;10.80;92.20
57857;DHT22;43683;48.650;9.290;2022-12-24T14:52:49;10.70;92.30
57857;DHT22;43683;48.650;9.290;2022-12-24T14:55:26;10.60;92.40
57857;DHT22;43683;48.650;9.290;2022-12-24T14:58:12;10.40;92.50
57857;DHT22;43683;48.650;9.290;2022-12-24T15:00:38;10.30;92.60
57857;DHT22;43683;48.650;9.290;2022-12-24T15:03:10;10.20;92.70
57857;DHT22;43683;48.650;9.290;2022-12-24T15:05:36;10.10;92.70
57857;DHT22;43683;48.650;9.290;2022-12-24T15:08:02;10.10;92.70
57857;DHT22;43683;48.650;9.290;2022-12-24T15:10:36;10.00;92.70
57857;DHT22;43683;48.650;9.290;2022-12-24T15:13:20;9.90;92.70
57857;DHT22;43683;48.650;9.290;2022-12-24T15:15:48;9.80;92.70
57857;DHT22;43683;48.650;9.290;2022-12-24T15:18:14;9.70;92.70
57857;DHT22;43683;48.650;9.290;2022-12-24T15:20:44;9.60;92.70
57857;DHT22;43683;48.650;9.290;2022-12-24T15:23:18;9.50;92.70
57857;DHT22;43683;48.650;9.290;2022-12-24T15:25:44;9.50;92.70
57857;DHT22;43683;48.650;9.290;2022-12-24T15:28:15;9.30;92.70
57857;DHT22;43683;48.650;9.290;2022-12-24T15:30:41;9.30;92.70
57857;DHT22;43683;48.650;9.290;2022-12-24T15:33:08;9.20;92.70
57857;DHT22;43683;48.650;9.290;2022-12-24T15:35:47;9.20;92.60
57857;DHT22;43683;48.650;9.290;2022-12-24T15:40:51;9.00;92.60
57857;DHT22;43683;48.650;9.290;2022-12-24T15:43:17;8.90;92.60
57857;DHT22;43683;48.650;9.290;2022-12-24T15:45:43;8.80;92.60
57857;DHT22;43683;48.650;9.290;2022-12-24T15:48:13;8.80;92.60
57857;DHT22;43683;48.650;9.290;2022-12-24T15:50:46;8.80;92.50
57857;DHT22;43683;48.650;9.290;2022-12-24T15:53:12;8.70;92.50
57857;DHT22;43683;48.650;9.290;2022-12-24T15:55:40;8.60;92.90
57857;DHT22;43683;48.650;9.290;2022-12-24T15:58:15;8.60;92.60
57857;DHT22;43683;48.650;9.290;2022-12-24T16:00:41;8.50;92.60
57857;DHT22;43683;48.650;9.290;2022-12-24T16:03:17;8.40;92.60
57857;DHT22;43683;48.650;9.290;2022-12-24T16:05:44;8.40;92.60
57857;DHT22;43683;48.650;9.290;2022-12-24T16:10:42;8.30;92.60
57857;DHT22;43683;48.650;9.290;2022-12-24T16:18:15;8.10;92.60
57857;DHT22;43683;48.650;9.290;2022-12-24T16:20:45;8.20;92.60
57857;DHT22;43683;48.650;9.290;2022-12-24T16:23:15;8.20;92.40
57857;DHT22;43683;48.650;9.290;2022-12-24T16:25:41;8.20;92.40
57857;DHT22;43683;48.650;9.290;2022-12-24T16:28:08;8.10;92.40
57857;DHT22;43683;48.650;9.290;2022-12-24T16:30:35;8.10;92.40
57857;DHT22;43683;48.650;9.290;2022-12-24T16:33:00;8.10;92.50
57857;DHT22;43683;48.650;9.290;2022-12-24T16:35:27;8.10;92.40
57857;DHT22;43683;48.650;9.290;2022-12-24T16:37:53;8.20;92.40
57857;DHT22;43683;48.650;9.290;2022-12-24T16:40:19;8.20;92.30
57857;DHT22;43683;48.650;9.290;2022-12-24T16:42:44;8.20;92.30
57857;DHT22;43683;48.650;9.290;2022-12-24T16:45:29;8.10;92.20
57857;DHT22;43683;48.650;9.290;2022-12-24T16:47:57;8.10;92.30
57857;DHT22;43683;48.650;9.290;2022-12-24T16:50:23;8.10;92.40
57857;DHT22;43683;48.650;9.290;2022-12-24T16:52:49;8.00;92.40
57857;DHT22;43683;48.650;9.290;2022-12-24T16:55:14;8.00;92.40
57857;DHT22;43683;48.650;9.290;2022-12-24T16:57:40;7.90;92.40
57857;DHT22;43683;48.650;9.290;2022-12-24T17:00:06;7.90;92.50
57857;DHT22;43683;48.650;9.290;2022-12-24T17:02:32;7.90;92.50
57857;DHT22;43683;48.650;9.290;2022-12-24T17:04:58;7.90;92.50
57857;DHT22;43683;48.650;9.290;2022-12-24T17:07:23;8.00;92.50
57857;DHT22;43683;48.650;9.290;2022-12-24T17:09:48;7.90;92.40
57857;DHT22;43683;48.650;9.290;2022-12-24T17:12:14;8.00;92.40
57857;DHT22;43683;48.650;9.290;2022-12-24T17:14:39;8.00;92.40
57857;DHT22;43683;48.650;9.290;2022-12-24T17:17:13;8.00;92.30
57857;DHT22;43683;48.650;9.290;2022-12-24T17:19:41;8.00;92.30
57857;DHT22;43683;48.650;9.290;2022-12-24T17:22:06;8.00;92.30
57857;DHT22;43683;48.650;9.290;2022-12-24T17:24:32;8.00;92.30
57857;DHT22;43683;48.650;9.290;2022-12-24T17:26:57;8.00;92.30
57857;DHT22;43683;48.650;9.290;2022-12-24T17:29:23;7.90;92.30
57857;DHT22;43683;48.650;9.290;2022-12-24T17:31:48;7.90;92.30
57857;DHT22;43683;48.650;9.290;2022-12-24T17:34:15;7.90;92.30